sensor_id;sensor_type;location;lat;lon;timestamp;pressure;altitude;pressure_sealevel;temperature;humidity
59391;BME280;53405;57.012;40.984;2022-11-20T00:01:14;100636.03;;;-7.90;80.31
59391;BME280;53405;57.012;40.984;2022-11-20T00:04:02;100639.34;;;-7.87;80.66
59391;BME280;53405;57.012;40.984;2022-11-20T00:06:49;100639.28;;;-7.85;80.88
59391;BME280;53405;57.012;40.984;2022-11-20T00:09:37;100641.84;;;-7.85;80.53
59391;BME280;53405;57.012;40.984;2022-11-20T00:12:24;100634.22;;;-7.87;81.09
59391;BME280;53405;57.012;40.984;2022-11-20T00:15:11;100641.88;;;-7.87;81.05
59391;BME280;53405;57.012;40.984;2022-11-20T00:17:59;100642.88;;;-7.91;81.23
59391;BME280;53405;57.012;40.984;2022-11-20T00:20:47;100652.06;;;-7.85;81.72
59391;BME280;53405;57.012;40.984;2022-11-20T00:23:34;100654.41;;;-7.77;81.37
59391;BME280;53405;57.012;40.984;2022-11-20T00:26:25;100650.94;;;-7.75;81.21
59391;BME280;53405;57.012;40.984;2022-11-20T00:29:12;100651.81;;;-7.76;80.93
59391;BME280;53405;57.012;40.984;2022-11-20T00:32:00;100657.00;;;-7.79;81.24
59391;BME280;53405;57.012;40.984;2022-11-20T00:34:48;100637.81;;;-7.92;81.07
59391;BME280;53405;57.012;40.984;2022-11-20T00:37:35;100624.31;;;-7.97;81.11
59391;BME280;53405;57.012;40.984;2022-11-20T00:40:23;100649.44;;;-7.82;81.50
59391;BME280;53405;57.012;40.984;2022-11-20T00:43:10;100649.28;;;-7.77;81.69
59391;BME280;53405;57.012;40.984;2022-11-20T00:45:59;100647.78;;;-7.83;81.48
59391;BME280;53405;57.012;40.984;2022-11-20T00:48:47;100649.72;;;-7.91;81.16
59391;BME280;53405;57.012;40.984;2022-11-20T00:51:34;100652.97;;;-7.86;81.33
59391;BME280;53405;57.012;40.984;2022-11-20T00:54:22;100636.94;;;-7.91;81.40
59391;BME280;53405;57.012;40.984;2022-11-20T00:57:09;100649.56;;;-7.87;81.98
59391;BME280;53405;57.012;40.984;2022-11-20T00:59:57;100614.97;;;-7.99;82.05
59391;BME280;53405;57.012;40.984;2022-11-20T01:02:45;100635.81;;;-7.83;81.35
59391;BME280;53405;57.012;40.984;2022-11-20T01:05:34;100616.84;;;-8.04;81.54
59391;BME280;53405;57.012;40.984;2022-11-20T01:08:22;100637.53;;;-7.83;82.16
59391;BME280;53405;57.012;40.984;2022-11-20T01:11:12;100639.28;;;-7.85;81.97
59391;BME280;53405;57.012;40.984;2022-11-20T01:14:02;100640.31;;;-7.91;81.80
59391;BME280;53405;57.012;40.984;2022-11-20T01:16:51;100643.72;;;-7.90;82.09
59391;BME280;53405;57.012;40.984;2022-11-20T01:19:38;100646.97;;;-7.85;82.34
59391;BME280;53405;57.012;40.984;2022-11-20T01:22:25;100645.22;;;-7.83;82.18
59391;BME280;53405;57.012;40.984;2022-11-20T01:25:13;100643.56;;;-7.86;82.03
59391;BME280;53405;57.012;40.984;2022-11-20T01:28:01;100617.66;;;-8.03;82.21
59391;BME280;53405;57.012;40.984;2022-11-20T01:30:48;100615.97;;;-8.04;82.60
59391;BME280;53405;57.012;40.984;2022-11-20T01:33:36;100639.53;;;-7.93;82.17
59391;BME280;53405;57.012;40.984;2022-11-20T01:36:26;100642.22;;;-7.97;81.92
59391;BME280;53405;57.012;40.984;2022-11-20T01:39:17;100642.41;;;-8.04;82.31
59391;BME280;53405;57.012;40.984;2022-11-20T01:42:07;100640.59;;;-8.00;82.42
59391;BME280;53405;57.012;40.984;2022-11-20T01:48:39;100641.41;;;-8.00;82.58
59391;BME280;53405;57.012;40.984;2022-11-20T01:51:54;100630.31;;;-7.99;82.67
59391;BME280;53405;57.012;40.984;2022-11-20T01:54:50;100632.00;;;-7.97;82.67
59391;BME280;53405;57.012;40.984;2022-11-20T01:57:40;100634.50;;;-7.96;82.19
59391;BME280;53405;57.012;40.984;2022-11-20T02:00:28;100629.47;;;-7.99;82.71
59391;BME280;53405;57.012;40.984;2022-11-20T02:03:17;100634.69;;;-8.02;82.38
59391;BME280;53405;57.012;40.984;2022-11-20T02:06:30;100633.78;;;-8.01;82.46
59391;BME280;53405;57.012;40.984;2022-11-20T02:09:20;100616.91;;;-8.07;82.26
59391;BME280;53405;57.012;40.984;2022-11-20T02:12:07;100630.97;;;-7.92;81.88
59391;BME280;53405;57.012;40.984;2022-11-20T02:15:15;100628.28;;;-7.87;82.25
59391;BME280;53405;57.012;40.984;2022-11-20T02:18:03;100615.53;;;-7.89;82.12
59391;BME280;53405;57.012;40.984;2022-11-20T02:20:55;100625.69;;;-7.86;81.71
59391;BME280;53405;57.012;40.984;2022-11-20T02:24:09;100617.88;;;-7.81;81.85
59391;BME280;53405;57.012;40.984;2022-11-20T02:27:02;100612.00;;;-7.85;81.59
59391;BME280;53405;57.012;40.984;2022-11-20T02:29:58;100616.19;;;-7.82;81.81
59391;BME280;53405;57.012;40.984;2022-11-20T02:32:50;100609.50;;;-7.86;81.32
59391;BME280;53405;57.012;40.984;2022-11-20T02:35:45;100605.25;;;-7.87;81.67
59391;BME280;53405;57.012;40.984;2022-11-20T02:38:34;100612.97;;;-7.89;81.53
59391;BME280;53405;57.012;40.984;2022-11-20T02:41:21;100612.28;;;-7.94;81.73
59391;BME280;53405;57.012;40.984;2022-11-20T02:44:10;100611.47;;;-7.94;81.82
59391;BME280;53405;57.012;40.984;2022-11-20T02:46:58;100607.31;;;-7.99;82.13
59391;BME280;53405;57.012;40.984;2022-11-20T02:49:46;100614.78;;;-7.92;82.15
59391;BME280;53405;57.012;40.984;2022-11-20T02:52:33;100607.09;;;-7.91;81.98
59391;BME280;53405;57.012;40.984;2022-11-20T02:55:21;100613.06;;;-7.92;82.15
59391;BME280;53405;57.012;40.984;2022-11-20T02:58:10;100607.09;;;-7.91;82.35
59391;BME280;53405;57.012;40.984;2022-11-20T03:00:57;100591.13;;;-7.99;82.16
59391;BME280;53405;57.012;40.984;2022-11-20T03:03:45;100607.88;;;-7.89;82.00
59391;BME280;53405;57.012;40.984;2022-11-20T03:06:32;100612.06;;;-7.86;82.15
59391;BME280;53405;57.012;40.984;2022-11-20T03:09:20;100609.50;;;-7.86;82.31
59391;BME280;53405;57.012;40.984;2022-11-20T03:12:08;100602.78;;;-7.90;82.19
59391;BME280;53405;57.012;40.984;2022-11-20T03:14:56;100605.16;;;-7.84;81.81
59391;BME280;53405;57.012;40.984;2022-11-20T03:17:43;100604.44;;;-7.88;81.79
59391;BME280;53405;57.012;40.984;2022-11-20T03:20:32;100586.75;;;-7.95;82.25
59391;BME280;53405;57.012;40.984;2022-11-20T03:23:21;100591.78;;;-7.92;82.28
59391;BME280;53405;57.012;40.984;2022-11-20T03:26:10;100586.72;;;-7.94;82.43
59391;BME280;53405;57.012;40.984;2022-11-20T03:28:59;100558.31;;;-8.13;82.48
59391;BME280;53405;57.012;40.984;2022-11-20T03:31:47;100599.28;;;-7.86;82.68
59391;BME280;53405;57.012;40.984;2022-11-20T03:34:35;100590.75;;;-7.87;82.22
59391;BME280;53405;57.012;40.984;2022-11-20T03:37:23;100587.34;;;-7.87;82.67
59391;BME280;53405;57.012;40.984;2022-11-20T03:40:11;100583.13;;;-7.88;82.84
59391;BME280;53405;57.012;40.984;2022-11-20T03:42:58;100576.22;;;-7.85;83.09
59391;BME280;53405;57.012;40.984;2022-11-20T03:45:46;100580.47;;;-7.85;83.05
59391;BME280;53405;57.012;40.984;2022-11-20T03:48:34;100563.44;;;-7.85;82.91
59391;BME280;53405;57.012;40.984;2022-11-20T03:51:26;100560.97;;;-7.88;83.30
59391;BME280;53405;57.012;40.984;2022-11-20T03:54:15;100561.78;;;-7.87;83.06
59391;BME280;53405;57.012;40.984;2022-11-20T03:57:02;100558.41;;;-7.88;83.30
59391;BME280;53405;57.012;40.984;2022-11-20T03:59:50;100567.03;;;-7.92;82.91
59391;BME280;53405;57.012;40.984;2022-11-20T04:02:37;100542.78;;;-8.07;83.18
59391;BME280;53405;57.012;40.984;2022-11-20T04:05:25;100566.94;;;-7.89;83.25
59391;BME280;53405;57.012;40.984;2022-11-20T04:08:13;100576.22;;;-7.85;83.39
59391;BME280;53405;57.012;40.984;2022-11-20T04:11:15;100577.81;;;-7.82;82.93
59391;BME280;53405;57.012;40.984;2022-11-20T04:14:06;100575.22;;;-7.81;83.13
59391;BME280;53405;57.012;40.984;2022-11-20T04:16:58;100572.63;;;-7.79;82.55
59391;BME280;53405;57.012;40.984;2022-11-20T04:19:46;100574.34;;;-7.79;83.07
59391;BME280;53405;57.012;40.984;2022-11-20T04:22:33;100575.25;;;-7.82;83.01
59391;BME280;53405;57.012;40.984;2022-11-20T04:25:21;100589.66;;;-7.78;82.51
59391;BME280;53405;57.012;40.984;2022-11-20T04:28:09;100582.88;;;-7.81;82.52
59391;BME280;53405;57.012;40.984;2022-11-20T04:31:13;100582.25;;;-7.87;82.45
59391;BME280;53405;57.012;40.984;2022-11-20T04:34:03;100589.03;;;-7.86;82.98
59391;BME280;53405;57.012;40.984;2022-11-20T04:36:51;100588.91;;;-7.82;83.19
59391;BME280;53405;57.012;40.984;2022-11-20T04:39:39;100582.88;;;-7.81;82.45
59391;BME280;53405;57.012;40.984;2022-11-20T04:42:26;100584.53;;;-7.78;82.59
59391;BME280;53405;57.012;40.984;2022-11-20T04:45:17;100589.00;;;-7.85;82.46
59391;BME280;53405;57.012;40.984;2022-11-20T04:48:04;100593.34;;;-7.88;82.30
59391;BME280;53405;57.012;40.984;2022-11-20T04:50:52;100592.56;;;-7.90;83.04
59391;BME280;53405;57.012;40.984;2022-11-20T04:53:41;100593.34;;;-7.88;82.64
59391;BME280;53405;57.012;40.984;2022-11-20T04:56:28;100592.56;;;-7.90;82.66
59391;BME280;53405;57.012;40.984;2022-11-20T04:59:16;100590.06;;;-7.92;82.74
59391;BME280;53405;57.012;40.984;2022-11-20T05:02:04;100595.00;;;-7.86;82.76
59391;BME280;53405;57.012;40.984;2022-11-20T05:04:51;100589.88;;;-7.86;82.42
59391;BME280;53405;57.012;40.984;2022-11-20T05:07:38;100595.06;;;-7.89;82.39
59391;BME280;53405;57.012;40.984;2022-11-20T05:10:27;100599.41;;;-7.91;82.53
59391;BME280;53405;57.012;40.984;2022-11-20T05:13:14;100592.59;;;-7.92;82.56
59391;BME280;53405;57.012;40.984;2022-11-20T05:16:08;100602.69;;;-7.87;83.06
59391;BME280;53405;57.012;40.984;2022-11-20T05:18:56;100598.41;;;-7.87;82.53
59391;BME280;53405;57.012;40.984;2022-11-20T05:21:43;100587.41;;;-7.89;81.89
59391;BME280;53405;57.012;40.984;2022-11-20T05:24:31;100585.88;;;-7.94;82.39
59391;BME280;53405;57.012;40.984;2022-11-20T05:27:18;100591.88;;;-7.95;82.18
59391;BME280;53405;57.012;40.984;2022-11-20T05:30:07;100587.63;;;-7.96;82.36
59391;BME280;53405;57.012;40.984;2022-11-20T05:32:55;100593.50;;;-7.93;82.47
59391;BME280;53405;57.012;40.984;2022-11-20T05:35:42;100597.50;;;-7.84;82.43
59391;BME280;53405;57.012;40.984;2022-11-20T05:38:31;100598.41;;;-7.87;81.84
59391;BME280;53405;57.012;40.984;2022-11-20T05:41:20;100596.06;;;-7.93;81.76
59391;BME280;53405;57.012;40.984;2022-11-20T05:44:10;100603.69;;;-7.91;81.70
59391;BME280;53405;57.012;40.984;2022-11-20T05:46:58;100604.59;;;-7.94;81.87
59391;BME280;53405;57.012;40.984;2022-11-20T05:49:45;100607.94;;;-7.92;81.98
59391;BME280;53405;57.012;40.984;2022-11-20T05:52:33;100614.44;;;-7.80;82.10
59391;BME280;53405;57.012;40.984;2022-11-20T05:55:21;100610.88;;;-7.76;81.86
59391;BME280;53405;57.012;40.984;2022-11-20T05:58:08;100614.94;;;-7.69;81.37
59391;BME280;53405;57.012;40.984;2022-11-20T06:01:04;100609.22;;;-7.77;80.97
59391;BME280;53405;57.012;40.984;2022-11-20T06:03:53;100620.38;;;-7.79;81.43
59391;BME280;53405;57.012;40.984;2022-11-20T06:06:40;100622.06;;;-7.78;81.45
59391;BME280;53405;57.012;40.984;2022-11-20T06:09:28;100621.84;;;-7.71;81.78
59391;BME280;53405;57.012;40.984;2022-11-20T06:12:16;100621.88;;;-7.72;80.81
59391;BME280;53405;57.012;40.984;2022-11-20T06:15:05;100612.66;;;-7.78;81.55
59391;BME280;53405;57.012;40.984;2022-11-20T06:17:53;100619.31;;;-7.72;81.14
59391;BME280;53405;57.012;40.984;2022-11-20T06:20:41;100623.69;;;-7.76;81.20
59391;BME280;53405;57.012;40.984;2022-11-20T06:23:30;100618.47;;;-7.73;81.06
59391;BME280;53405;57.012;40.984;2022-11-20T06:26:21;100626.09;;;-7.71;81.01
59391;BME280;53405;57.012;40.984;2022-11-20T06:29:08;100615.00;;;-7.70;80.40
59391;BME280;53405;57.012;40.984;2022-11-20T06:31:56;100620.19;;;-7.73;80.98
59391;BME280;53405;57.012;40.984;2022-11-20T06:34:43;100616.88;;;-7.75;80.85
59391;BME280;53405;57.012;40.984;2022-11-20T06:37:31;100628.88;;;-7.79;80.84
59391;BME280;53405;57.012;40.984;2022-11-20T06:40:18;100623.59;;;-7.73;80.92
59391;BME280;53405;57.012;40.984;2022-11-20T06:43:06;100603.34;;;-7.81;80.93
59391;BME280;53405;57.012;40.984;2022-11-20T06:45:55;100631.72;;;-7.60;80.63
59391;BME280;53405;57.012;40.984;2022-11-20T06:48:43;100632.22;;;-7.47;81.00
59391;BME280;53405;57.012;40.984;2022-11-20T06:51:30;100637.19;;;-7.42;80.51
59391;BME280;53405;57.012;40.984;2022-11-20T06:54:18;100639.63;;;-7.39;80.56
59391;BME280;53405;57.012;40.984;2022-11-20T06:57:05;100645.47;;;-7.34;80.60
59391;BME280;53405;57.012;40.984;2022-11-20T06:59:53;100642.91;;;-7.34;79.41
59391;BME280;53405;57.012;40.984;2022-11-20T07:02:41;100647.25;;;-7.38;80.09
59391;BME280;53405;57.012;40.984;2022-11-20T07:05:29;100650.72;;;-7.39;79.43
59391;BME280;53405;57.012;40.984;2022-11-20T07:08:16;100666.03;;;-7.37;79.55
59391;BME280;53405;57.012;40.984;2022-11-20T07:11:06;100676.03;;;-7.30;79.83
59391;BME280;53405;57.012;40.984;2022-11-20T07:13:53;100680.97;;;-7.23;79.63
59391;BME280;53405;57.012;40.984;2022-11-20T07:16:40;100677.25;;;-7.15;79.58
59391;BME280;53405;57.012;40.984;2022-11-20T07:19:28;100683.84;;;-7.06;78.79
59391;BME280;53405;57.012;40.984;2022-11-20T07:22:15;100644.81;;;-7.14;78.72
59391;BME280;53405;57.012;40.984;2022-11-20T07:25:04;100674.56;;;-7.10;77.40
59391;BME280;53405;57.012;40.984;2022-11-20T07:27:52;100656.47;;;-7.32;77.86
59391;BME280;53405;57.012;40.984;2022-11-20T07:30:39;100668.59;;;-7.37;78.26
59391;BME280;53405;57.012;40.984;2022-11-20T07:33:27;100658.53;;;-7.43;78.61
59391;BME280;53405;57.012;40.984;2022-11-20T07:36:14;100647.63;;;-7.49;78.92
59391;BME280;53405;57.012;40.984;2022-11-20T07:39:02;100658.44;;;-7.40;78.67
59391;BME280;53405;57.012;40.984;2022-11-20T07:41:50;100665.84;;;-7.31;79.59
59391;BME280;53405;57.012;40.984;2022-11-20T07:44:38;100660.28;;;-7.17;78.95
59391;BME280;53405;57.012;40.984;2022-11-20T07:47:26;100660.84;;;-7.07;79.08
59391;BME280;53405;57.012;40.984;2022-11-20T07:50:13;100664.97;;;-7.03;78.57
59391;BME280;53405;57.012;40.984;2022-11-20T07:53:03;100666.50;;;-6.98;79.20
59391;BME280;53405;57.012;40.984;2022-11-20T07:55:51;100668.06;;;-6.94;78.68
59391;BME280;53405;57.012;40.984;2022-11-20T07:58:42;100672.34;;;-6.94;78.78
59391;BME280;53405;57.012;40.984;2022-11-20T08:01:29;100669.72;;;-6.93;78.68
59391;BME280;53405;57.012;40.984;2022-11-20T08:04:18;100662.44;;;-7.05;77.87
59391;BME280;53405;57.012;40.984;2022-11-20T08:07:05;100665.47;;;-7.19;78.20
59391;BME280;53405;57.012;40.984;2022-11-20T08:09:53;100673.38;;;-7.27;78.46
59391;BME280;53405;57.012;40.984;2022-11-20T08:12:48;100669.13;;;-7.28;78.51
59391;BME280;53405;57.012;40.984;2022-11-20T08:15:55;100678.53;;;-7.28;78.58
59391;BME280;53405;57.012;40.984;2022-11-20T08:18:42;100687.16;;;-7.31;78.47
59391;BME280;53405;57.012;40.984;2022-11-20T08:21:31;100677.84;;;-7.33;78.56
59391;BME280;53405;57.012;40.984;2022-11-20T08:24:21;100674.41;;;-7.32;78.64
59391;BME280;53405;57.012;40.984;2022-11-20T08:27:08;100678.59;;;-7.30;78.56
59391;BME280;53405;57.012;40.984;2022-11-20T08:29:56;100670.97;;;-7.31;78.50
59391;BME280;53405;57.012;40.984;2022-11-20T08:32:44;100666.75;;;-7.34;78.82
59391;BME280;53405;57.012;40.984;2022-11-20T08:35:36;100676.13;;;-7.33;78.80
59391;BME280;53405;57.012;40.984;2022-11-20T08:38:24;100672.63;;;-7.30;78.69
59391;BME280;53405;57.012;40.984;2022-11-20T08:41:11;100649.81;;;-7.38;79.10
59391;BME280;53405;57.012;40.984;2022-11-20T08:44:19;100681.84;;;-7.24;78.88
59391;BME280;53405;57.012;40.984;2022-11-20T08:47:06;100678.25;;;-7.19;78.92
59391;BME280;53405;57.012;40.984;2022-11-20T08:49:54;100680.59;;;-7.13;79.40
59391;BME280;53405;57.012;40.984;2022-11-20T08:52:42;100675.34;;;-7.08;79.34
59391;BME280;53405;57.012;40.984;2022-11-20T08:55:30;100673.59;;;-7.06;80.04
59391;BME280;53405;57.012;40.984;2022-11-20T08:58:18;100661.06;;;-7.15;79.59
59391;BME280;53405;57.012;40.984;2022-11-20T09:01:05;100668.94;;;-7.21;79.38
59391;BME280;53405;57.012;40.984;2022-11-20T09:03:55;100685.09;;;-7.19;79.25
59391;BME280;53405;57.012;40.984;2022-11-20T09:06:47;100695.19;;;-7.15;79.56
59391;BME280;53405;57.012;40.984;2022-11-20T09:09:38;100697.59;;;-7.10;79.88
59391;BME280;53405;57.012;40.984;2022-11-20T09:12:25;100699.44;;;-7.14;79.13
59391;BME280;53405;57.012;40.984;2022-11-20T09:15:13;100696.28;;;-7.22;78.66
59391;BME280;53405;57.012;40.984;2022-11-20T09:18:02;100678.19;;;-7.17;79.25
59391;BME280;53405;57.012;40.984;2022-11-20T09:20:51;100679.88;;;-7.16;78.79
59391;BME280;53405;57.012;40.984;2022-11-20T09:23:39;100678.13;;;-7.16;79.05
59391;BME280;53405;57.012;40.984;2022-11-20T09:26:27;100670.94;;;-7.03;79.21
59391;BME280;53405;57.012;40.984;2022-11-20T09:29:14;100667.63;;;-7.06;78.91
59391;BME280;53405;57.012;40.984;2022-11-20T09:32:02;100668.53;;;-7.07;79.36
59391;BME280;53405;57.012;40.984;2022-11-20T09:34:50;100671.84;;;-7.05;79.43
59391;BME280;53405;57.012;40.984;2022-11-20T09:37:38;100669.19;;;-7.02;79.54
59391;BME280;53405;57.012;40.984;2022-11-20T09:40:27;100659.75;;;-7.00;79.93
59391;BME280;53405;57.012;40.984;2022-11-20T09:46:17;100684.09;;;-6.87;79.51
59391;BME280;53405;57.012;40.984;2022-11-20T09:52:56;100673.06;;;-6.64;79.39
59391;BME280;53405;57.012;40.984;2022-11-20T09:55:46;100665.56;;;-6.70;79.09
59391;BME280;53405;57.012;40.984;2022-11-20T09:58:41;100687.19;;;-6.52;79.15
59391;BME280;53405;57.012;40.984;2022-11-20T10:01:33;100681.88;;;-6.46;78.72
59391;BME280;53405;57.012;40.984;2022-11-20T10:04:22;100675.06;;;-6.47;78.48
59391;BME280;53405;57.012;40.984;2022-11-20T10:07:24;100661.81;;;-6.60;77.77
59391;BME280;53405;57.012;40.984;2022-11-20T10:10:42;100665.25;;;-6.61;77.49
59391;BME280;53405;57.012;40.984;2022-11-20T10:16:38;100656.47;;;-6.79;78.01
59391;BME280;53405;57.012;40.984;2022-11-20T10:25:47;100628.66;;;-6.64;77.65
59391;BME280;53405;57.012;40.984;2022-11-20T10:31:34;100651.94;;;-6.70;77.35
59391;BME280;53405;57.012;40.984;2022-11-20T10:37:21;100677.56;;;-6.70;77.95
59391;BME280;53405;57.012;40.984;2022-11-20T10:43:32;100679.03;;;-6.63;77.76
59391;BME280;53405;57.012;40.984;2022-11-20T10:46:21;100692.94;;;-6.70;77.65
59391;BME280;53405;57.012;40.984;2022-11-20T10:49:16;100692.97;;;-6.72;78.19
59391;BME280;53405;57.012;40.984;2022-11-20T10:52:16;100698.25;;;-6.77;77.83
59391;BME280;53405;57.012;40.984;2022-11-20T10:55:30;100690.09;;;-6.88;78.00
59391;BME280;53405;57.012;40.984;2022-11-20T11:01:20;100722.50;;;-6.60;78.76
59391;BME280;53405;57.012;40.984;2022-11-20T11:07:34;100729.09;;;-6.28;77.63
59391;BME280;53405;57.012;40.984;2022-11-20T11:10:41;100721.34;;;-6.26;77.01
59391;BME280;53405;57.012;40.984;2022-11-20T11:13:32;100736.22;;;-6.11;77.48
59391;BME280;53405;57.012;40.984;2022-11-20T11:16:25;100716.75;;;-6.17;75.79
59391;BME280;53405;57.012;40.984;2022-11-20T11:19:13;100746.25;;;-6.05;75.55
59391;BME280;53405;57.012;40.984;2022-11-20T11:22:17;100749.91;;;-6.12;75.10
59391;BME280;53405;57.012;40.984;2022-11-20T11:25:11;100746.59;;;-6.14;74.79
59391;BME280;53405;57.012;40.984;2022-11-20T11:31:05;100764.59;;;-6.15;75.48
59391;BME280;53405;57.012;40.984;2022-11-20T11:34:07;100765.19;;;-6.09;76.08
59391;BME280;53405;57.012;40.984;2022-11-20T11:36:58;100740.84;;;-6.21;76.30
59391;BME280;53405;57.012;40.984;2022-11-20T11:39:46;100742.06;;;-6.32;77.47
59391;BME280;53405;57.012;40.984;2022-11-20T11:42:42;100759.03;;;-6.03;76.75
59391;BME280;53405;57.012;40.984;2022-11-20T11:45:30;100764.13;;;-6.02;77.31
59391;BME280;53405;57.012;40.984;2022-11-20T11:48:18;100761.81;;;-6.09;78.30
59391;BME280;53405;57.012;40.984;2022-11-20T11:51:08;100760.78;;;-6.04;78.51
59391;BME280;53405;57.012;40.984;2022-11-20T11:53:58;100753.34;;;-5.88;78.04
59391;BME280;53405;57.012;40.984;2022-11-20T11:56:46;100739.44;;;-6.06;77.12
59391;BME280;53405;57.012;40.984;2022-11-20T12:05:38;100719.03;;;-6.59;79.65
59391;BME280;53405;57.012;40.984;2022-11-20T12:11:49;100729.47;;;-6.65;79.91
59391;BME280;53405;57.012;40.984;2022-11-20T12:14:37;100729.81;;;-6.75;80.07
59391;BME280;53405;57.012;40.984;2022-11-20T12:17:27;100736.63;;;-6.75;80.74
59391;BME280;53405;57.012;40.984;2022-11-20T12:20:15;100723.53;;;-6.66;80.40
59391;BME280;53405;57.012;40.984;2022-11-20T12:29:39;100737.78;;;-6.84;79.78
59391;BME280;53405;57.012;40.984;2022-11-20T12:38:48;100750.78;;;-6.63;79.64
59391;BME280;53405;57.012;40.984;2022-11-20T12:45:05;100749.28;;;-6.44;79.89
59391;BME280;53405;57.012;40.984;2022-11-20T12:48:33;100752.03;;;-6.50;78.96
59391;BME280;53405;57.012;40.984;2022-11-20T12:54:46;100747.47;;;-6.67;79.00
59391;BME280;53405;57.012;40.984;2022-11-20T13:00:56;100757.06;;;-6.47;79.28
59391;BME280;53405;57.012;40.984;2022-11-20T13:03:51;100743.25;;;-6.68;79.03
59391;BME280;53405;57.012;40.984;2022-11-20T13:06:41;100764.44;;;-6.63;78.87
59391;BME280;53405;57.012;40.984;2022-11-20T13:09:30;100758.03;;;-6.76;78.96
59391;BME280;53405;57.012;40.984;2022-11-20T13:12:26;100762.63;;;-6.61;79.58
59391;BME280;53405;57.012;40.984;2022-11-20T13:15:35;100726.34;;;-6.74;79.10
59391;BME280;53405;57.012;40.984;2022-11-20T13:18:28;100760.13;;;-6.62;79.40
59391;BME280;53405;57.012;40.984;2022-11-20T13:21:34;100741.66;;;-6.72;79.27
59391;BME280;53405;57.012;40.984;2022-11-20T13:24:25;100734.66;;;-6.94;79.53
59391;BME280;53405;57.012;40.984;2022-11-20T13:30:16;100786.94;;;-6.73;79.89
59391;BME280;53405;57.012;40.984;2022-11-20T13:33:21;100783.34;;;-6.67;81.37
59391;BME280;53405;57.012;40.984;2022-11-20T13:36:24;100776.84;;;-6.50;80.16
59391;BME280;53405;57.012;40.984;2022-11-20T13:39:30;100773.75;;;-6.60;79.72
59391;BME280;53405;57.012;40.984;2022-11-20T13:42:25;100777.34;;;-6.66;79.33
59391;BME280;53405;57.012;40.984;2022-11-20T13:45:27;100750.59;;;-6.84;80.16
59391;BME280;53405;57.012;40.984;2022-11-20T13:48:24;100775.91;;;-6.75;80.09
59391;BME280;53405;57.012;40.984;2022-11-20T14:03:49;100769.56;;;-6.91;80.75
59391;BME280;53405;57.012;40.984;2022-11-20T14:06:51;100768.69;;;-6.90;81.11
59391;BME280;53405;57.012;40.984;2022-11-20T14:09:38;100771.50;;;-6.98;80.50
59391;BME280;53405;57.012;40.984;2022-11-20T14:12:35;100767.47;;;-7.06;81.33
59391;BME280;53405;57.012;40.984;2022-11-20T14:15:32;100765.72;;;-7.04;81.15
59391;BME280;53405;57.012;40.984;2022-11-20T14:18:21;100730.38;;;-7.21;81.20
59391;BME280;53405;57.012;40.984;2022-11-20T14:21:09;100765.81;;;-7.07;82.11
59391;BME280;53405;57.012;40.984;2022-11-20T14:24:07;100772.75;;;-7.11;81.85
59391;BME280;53405;57.012;40.984;2022-11-20T14:26:57;100760.03;;;-7.14;81.99
59391;BME280;53405;57.012;40.984;2022-11-20T14:29:49;100761.66;;;-7.12;81.99
59391;BME280;53405;57.012;40.984;2022-11-20T14:32:37;100757.50;;;-7.16;82.17
59391;BME280;53405;57.012;40.984;2022-11-20T14:35:35;100760.06;;;-7.16;81.93
59391;BME280;53405;57.012;40.984;2022-11-20T14:38:27;100766.03;;;-7.15;82.01
59391;BME280;53405;57.012;40.984;2022-11-20T14:41:23;100755.84;;;-7.17;82.04
59391;BME280;53405;57.012;40.984;2022-11-20T14:44:11;100746.50;;;-7.18;82.12
59391;BME280;53405;57.012;40.984;2022-11-20T14:47:00;100744.19;;;-7.27;82.08
59391;BME280;53405;57.012;40.984;2022-11-20T14:49:50;100754.41;;;-7.26;82.50
59391;BME280;53405;57.012;40.984;2022-11-20T14:52:38;100756.13;;;-7.26;82.57
59391;BME280;53405;57.012;40.984;2022-11-20T14:55:37;100763.66;;;-7.21;82.67
59391;BME280;53405;57.012;40.984;2022-11-20T14:58:31;100762.59;;;-7.14;82.76
59391;BME280;53405;57.012;40.984;2022-11-20T15:01:31;100774.56;;;-7.15;82.26
59391;BME280;53405;57.012;40.984;2022-11-20T15:04:19;100774.59;;;-7.16;81.98
59391;BME280;53405;57.012;40.984;2022-11-20T15:07:07;100771.13;;;-7.14;82.29
59391;BME280;53405;57.012;40.984;2022-11-20T15:10:06;100775.25;;;-7.10;82.09
59391;BME280;53405;57.012;40.984;2022-11-20T15:15:52;100784.75;;;-7.13;81.85
59391;BME280;53405;57.012;40.984;2022-11-20T15:18:42;100786.63;;;-7.18;81.52
59391;BME280;53405;57.012;40.984;2022-11-20T15:21:29;100781.50;;;-7.18;81.89
59391;BME280;53405;57.012;40.984;2022-11-20T15:24:17;100778.66;;;-7.09;82.11
59391;BME280;53405;57.012;40.984;2022-11-20T15:27:05;100794.81;;;-7.07;81.78
59391;BME280;53405;57.012;40.984;2022-11-20T15:29:54;100757.09;;;-7.30;81.54
59391;BME280;53405;57.012;40.984;2022-11-20T15:32:42;100794.78;;;-7.05;81.40
59391;BME280;53405;57.012;40.984;2022-11-20T15:35:30;100810.41;;;-6.86;81.61
59391;BME280;53405;57.012;40.984;2022-11-20T15:38:17;100813.41;;;-6.72;81.90
59391;BME280;53405;57.012;40.984;2022-11-20T15:41:05;100810.50;;;-6.61;81.47
59391;BME280;53405;57.012;40.984;2022-11-20T15:43:52;100815.81;;;-6.67;81.98
59391;BME280;53405;57.012;40.984;2022-11-20T15:46:41;100816.41;;;-6.59;80.94
59391;BME280;53405;57.012;40.984;2022-11-20T15:49:30;100811.56;;;-6.68;81.28
59391;BME280;53405;57.012;40.984;2022-11-20T15:52:17;100791.13;;;-6.97;81.72
59391;BME280;53405;57.012;40.984;2022-11-20T15:55:09;100814.03;;;-6.65;81.10
59391;BME280;53405;57.012;40.984;2022-11-20T15:57:57;100818.38;;;-6.67;80.11
59391;BME280;53405;57.012;40.984;2022-11-20T16:00:45;100824.00;;;-6.84;80.43
59391;BME280;53405;57.012;40.984;2022-11-20T16:03:32;100823.38;;;-6.91;80.71
59391;BME280;53405;57.012;40.984;2022-11-20T16:06:20;100819.97;;;-6.92;80.63
59391;BME280;53405;57.012;40.984;2022-11-20T16:09:08;100824.91;;;-6.85;80.86